createdAt,value
2023-03-01T00:00:21.209Z,10.80
2023-03-01T00:02:48.641Z,10.79
2023-03-01T00:05:15.862Z,10.44
2023-03-01T00:07:43.041Z,9.48
2023-03-01T00:10:10.872Z,10.21
2023-03-01T00:12:38.029Z,10.12
2023-03-01T00:15:05.884Z,10.06
2023-03-01T00:17:33.390Z,10.58
2023-03-01T00:20:00.576Z,10.93
2023-03-01T00:22:29.218Z,10.63
2023-03-01T00:24:56.727Z,10.81
2023-03-01T00:27:23.878Z,10.86
2023-03-01T00:29:51.031Z,11.73
2023-03-01T00:32:18.541Z,11.83
2023-03-01T00:34:55.042Z,11.18
2023-03-01T00:37:22.733Z,11.43
2023-03-01T00:39:49.954Z,11.59
2023-03-01T00:42:17.255Z,11.74
2023-03-01T00:44:44.714Z,11.67
2023-03-01T00:47:11.860Z,11.38
2023-03-01T00:49:39.013Z,11.58
2023-03-01T00:52:06.437Z,11.69
2023-03-01T00:54:33.587Z,11.40
2023-03-01T00:57:00.780Z,11.73
2023-03-01T00:59:28.243Z,10.74
2023-03-01T01:01:55.426Z,11.55
2023-03-01T01:04:23.504Z,11.68
2023-03-01T01:06:50.949Z,10.36
2023-03-01T01:09:18.652Z,10.34
2023-03-01T01:11:49.767Z,10.77
2023-03-01T01:14:17.693Z,10.82
2023-03-01T01:16:44.873Z,10.91
2023-03-01T01:19:12.432Z,10.95
2023-03-01T01:21:39.953Z,11.08
2023-03-01T01:24:07.315Z,11.29
2023-03-01T01:26:34.952Z,10.83
2023-03-01T01:29:02.737Z,10.77
2023-03-01T01:31:30.727Z,9.88
2023-03-01T01:33:58.406Z,9.85
2023-03-01T01:36:25.833Z,9.79
2023-03-01T01:38:53.024Z,10.51
2023-03-01T01:41:20.697Z,9.98
2023-03-01T01:43:49.303Z,10.23
2023-03-01T01:46:27.143Z,9.86
2023-03-01T01:48:59.060Z,10.02
2023-03-01T01:51:27.004Z,10.11
2023-03-01T01:53:56.247Z,10.71
2023-03-01T01:56:23.582Z,10.68
2023-03-01T01:58:50.742Z,10.86
2023-03-01T02:01:18.168Z,9.76
2023-03-01T02:03:45.961Z,10.13
2023-03-01T02:06:14.828Z,9.91
2023-03-01T02:08:42.483Z,10.46
2023-03-01T02:11:11.296Z,11.13
2023-03-01T02:13:38.465Z,11.60
2023-03-01T02:16:06.378Z,11.59
2023-03-01T02:18:33.890Z,12.12
2023-03-01T02:21:07.020Z,12.33
2023-03-01T02:23:34.470Z,12.49
2023-03-01T02:26:20.404Z,12.63
2023-03-01T02:28:47.867Z,12.15
2023-03-01T02:31:38.692Z,12.21
2023-03-01T02:34:06.691Z,12.59
2023-03-01T02:36:38.218Z,11.75
2023-03-01T02:39:07.232Z,11.50
2023-03-01T02:41:38.049Z,11.01
2023-03-01T02:44:05.595Z,10.32
2023-03-01T02:46:33.068Z,11.06
2023-03-01T02:49:00.803Z,10.89
2023-03-01T02:51:34.085Z,10.53
2023-03-01T02:54:13.521Z,11.35
2023-03-01T02:56:41.049Z,11.54
2023-03-01T02:59:08.329Z,11.29
2023-03-01T03:01:38.729Z,11.49
2023-03-01T03:04:07.614Z,11.55
2023-03-01T03:06:34.961Z,11.08
2023-03-01T03:09:02.109Z,11.97
2023-03-01T03:11:29.570Z,11.35
2023-03-01T03:13:57.029Z,9.98
2023-03-01T03:16:24.563Z,11.01
2023-03-01T03:18:52.180Z,9.94
2023-03-01T03:21:19.327Z,10.02
2023-03-01T03:23:46.521Z,10.25
2023-03-01T03:26:14.406Z,10.62
2023-03-01T03:28:41.559Z,9.82
2023-03-01T03:31:08.824Z,9.70
2023-03-01T03:33:36.455Z,10.05
2023-03-01T03:36:03.796Z,10.12
2023-03-01T03:38:31.701Z,9.54
2023-03-01T03:41:03.493Z,9.22
2023-03-01T03:43:31.691Z,8.72
2023-03-01T03:45:59.170Z,9.34
2023-03-01T03:48:26.668Z,9.34
2023-03-01T03:50:55.285Z,9.82
2023-03-01T03:53:23.603Z,10.46
2023-03-01T03:55:50.926Z,10.43
2023-03-01T03:58:20.671Z,10.86
2023-03-01T04:00:49.034Z,11.13
2023-03-01T04:03:17.138Z,10.55
2023-03-01T04:05:44.305Z,11.39
2023-03-01T04:08:11.603Z,10.92
2023-03-01T04:10:42.720Z,11.52
2023-03-01T04:13:13.447Z,11.73
2023-03-01T04:15:41.239Z,12.09
2023-03-01T04:18:08.475Z,12.11
2023-03-01T04:20:35.893Z,12.27
2023-03-01T04:23:21.556Z,11.87
2023-03-01T04:25:54.656Z,12.03
2023-03-01T04:28:22.187Z,12.13
2023-03-01T04:30:49.369Z,12.41
2023-03-01T04:33:16.529Z,12.72
2023-03-01T04:35:44.090Z,12.51
2023-03-01T04:38:11.504Z,12.53
2023-03-01T04:40:38.706Z,12.61
2023-03-01T04:43:06.113Z,12.35
2023-03-01T04:45:33.525Z,12.53
2023-03-01T04:48:00.732Z,11.76
2023-03-01T04:50:28.272Z,12.05
2023-03-01T04:52:55.555Z,12.45
2023-03-01T04:55:22.758Z,11.91
2023-03-01T04:57:50.186Z,11.08
2023-03-01T05:00:23.703Z,10.60
2023-03-01T05:02:54.476Z,10.83
2023-03-01T05:05:22.772Z,10.22
2023-03-01T05:07:49.928Z,10.51
2023-03-01T05:10:17.346Z,10.82
2023-03-01T05:12:44.496Z,11.05
2023-03-01T05:15:11.663Z,10.46
2023-03-01T05:17:39.122Z,9.79
2023-03-01T05:20:09.877Z,8.88
2023-03-01T05:22:37.101Z,9.74
2023-03-01T05:25:05.888Z,10.06
2023-03-01T05:27:33.042Z,9.79
2023-03-01T05:30:00.201Z,9.84
2023-03-01T05:32:27.686Z,9.69
2023-03-01T05:34:56.180Z,9.79
2023-03-01T05:37:23.358Z,10.34
2023-03-01T05:39:51.409Z,10.85
2023-03-01T05:42:18.633Z,10.45
2023-03-01T05:44:45.832Z,10.97
2023-03-01T05:47:14.585Z,10.63
2023-03-01T05:49:41.723Z,11.54
2023-03-01T05:52:08.884Z,11.32
2023-03-01T05:54:36.351Z,10.70
2023-03-01T05:57:03.513Z,11.09
2023-03-01T05:59:30.777Z,10.61
2023-03-01T06:01:58.316Z,11.39
2023-03-01T06:04:25.774Z,11.63
2023-03-01T06:06:53.038Z,11.65
2023-03-01T06:09:20.313Z,11.96
2023-03-01T06:11:47.754Z,11.83
2023-03-01T06:14:15.663Z,11.28
2023-03-01T06:16:42.868Z,12.11
2023-03-01T06:19:10.274Z,11.93
2023-03-01T06:21:37.440Z,12.31
2023-03-01T06:24:04.737Z,12.37
2023-03-01T06:26:32.511Z,11.02
2023-03-01T06:28:59.923Z,11.15
2023-03-01T06:31:27.194Z,11.48
2023-03-01T06:33:55.054Z,12.00
2023-03-01T06:36:22.989Z,11.63
2023-03-01T06:38:50.172Z,12.21
2023-03-01T06:41:17.586Z,12.16
2023-03-01T06:43:44.759Z,12.23
2023-03-01T06:46:11.976Z,11.47
2023-03-01T06:48:39.495Z,12.08
2023-03-01T06:51:06.648Z,12.58
2023-03-01T06:53:33.795Z,12.48
2023-03-01T06:56:01.292Z,11.68
2023-03-01T06:58:28.461Z,12.10
2023-03-01T07:00:55.654Z,11.84
2023-03-01T07:03:23.534Z,12.27
2023-03-01T07:05:52.662Z,11.67
2023-03-01T07:08:19.880Z,11.74
2023-03-01T07:10:47.442Z,12.11
2023-03-01T07:13:14.612Z,11.31
2023-03-01T07:15:41.822Z,11.47
2023-03-01T07:18:09.308Z,11.54
2023-03-01T07:20:36.474Z,11.38
2023-03-01T07:23:03.605Z,11.30
2023-03-01T07:25:31.069Z,11.08
2023-03-01T07:27:59.962Z,11.74
2023-03-01T07:30:29.319Z,11.96
2023-03-01T07:32:58.588Z,11.95
2023-03-01T07:35:26.188Z,11.73
2023-03-01T07:37:56.290Z,12.12
2023-03-01T07:40:23.750Z,11.93
2023-03-01T07:42:52.407Z,11.85
2023-03-01T07:45:19.636Z,11.70
2023-03-01T07:47:47.047Z,11.77
2023-03-01T07:50:17.322Z,11.32
2023-03-01T07:52:46.336Z,11.12
2023-03-01T07:55:14.137Z,10.88
2023-03-01T07:57:41.321Z,10.26
2023-03-01T08:00:09.446Z,11.02
2023-03-01T08:02:39.096Z,10.98
2023-03-01T08:05:06.644Z,11.43
2023-03-01T08:07:34.006Z,11.59
2023-03-01T08:10:01.151Z,10.41
2023-03-01T08:12:29.409Z,10.32
2023-03-01T08:14:58.131Z,11.16
2023-03-01T08:17:25.349Z,11.39
2023-03-01T08:19:53.216Z,11.54
2023-03-01T08:22:20.390Z,11.61
2023-03-01T08:24:47.612Z,11.72
2023-03-01T08:27:16.641Z,12.18
2023-03-01T08:29:44.030Z,11.90
2023-03-01T08:32:11.376Z,11.87
2023-03-01T08:34:42.559Z,11.46
2023-03-01T08:37:10.825Z,11.53
2023-03-01T08:39:38.010Z,12.02
2023-03-01T08:42:05.941Z,10.25
2023-03-01T08:44:33.152Z,11.33
2023-03-01T08:47:01.026Z,11.85
2023-03-01T08:49:29.366Z,11.47
2023-03-01T08:51:56.940Z,12.06
2023-03-01T08:54:27.176Z,12.18
2023-03-01T08:56:56.030Z,11.77
2023-03-01T08:59:25.094Z,11.90
2023-03-01T09:01:55.348Z,11.52
2023-03-01T09:04:24.649Z,12.02
2023-03-01T09:06:51.852Z,12.58
2023-03-01T09:09:19.113Z,12.80
2023-03-01T09:11:47.292Z,13.46
2023-03-01T09:14:15.295Z,13.16
2023-03-01T09:16:42.546Z,12.59
2023-03-01T09:19:09.992Z,12.85
2023-03-01T09:21:40.658Z,12.65
2023-03-01T09:24:14.105Z,12.55
2023-03-01T09:26:41.628Z,12.77
2023-03-01T09:29:10.788Z,12.12
2023-03-01T09:31:38.284Z,12.78
2023-03-01T09:34:06.032Z,12.28
2023-03-01T09:36:34.297Z,12.49
2023-03-01T09:39:03.888Z,12.63
2023-03-01T09:41:45.750Z,12.08
2023-03-01T09:44:25.806Z,11.88
2023-03-01T09:46:53.254Z,11.87
2023-03-01T09:49:22.136Z,12.35
2023-03-01T09:51:55.226Z,12.15
2023-03-01T09:54:22.999Z,11.73
2023-03-01T09:57:06.562Z,12.51
2023-03-01T09:59:38.170Z,12.83
2023-03-01T10:02:26.220Z,12.25
2023-03-01T10:05:00.215Z,12.43
2023-03-01T10:07:49.807Z,12.66
2023-03-01T10:10:38.406Z,12.22
2023-03-01T10:13:14.821Z,12.56
2023-03-01T10:15:45.096Z,12.38
2023-03-01T10:18:20.148Z,12.94
2023-03-01T10:20:48.556Z,13.04
2023-03-01T10:23:16.462Z,12.80
2023-03-01T10:26:02.528Z,12.22
2023-03-01T10:28:32.257Z,11.63
2023-03-01T10:30:59.703Z,11.90
2023-03-01T10:33:34.012Z,12.11
2023-03-01T10:36:01.547Z,12.62
2023-03-01T10:38:30.568Z,13.63
2023-03-01T10:40:59.084Z,13.38
2023-03-01T10:43:26.937Z,13.56
2023-03-01T10:45:54.254Z,13.92
2023-03-01T10:48:27.060Z,13.16
2023-03-01T10:51:00.602Z,12.75
2023-03-01T10:53:28.000Z,13.58
2023-03-01T10:56:01.321Z,13.68
2023-03-01T10:58:29.199Z,13.50
2023-03-01T11:01:04.925Z,13.15
2023-03-01T11:03:33.255Z,14.17
2023-03-01T11:06:02.291Z,14.23
2023-03-01T11:08:34.879Z,13.87
2023-03-01T11:11:06.434Z,14.13
2023-03-01T11:13:33.566Z,14.47
2023-03-01T11:16:01.485Z,13.54
2023-03-01T11:18:45.812Z,13.67
2023-03-01T11:21:14.473Z,13.96
2023-03-01T11:23:41.982Z,14.00
2023-03-01T11:26:11.485Z,14.36
2023-03-01T11:28:39.829Z,13.77
2023-03-01T11:31:10.034Z,13.57
2023-03-01T11:33:43.442Z,14.83
2023-03-01T11:36:29.593Z,15.18
2023-03-01T11:38:56.790Z,14.16
2023-03-01T11:41:28.916Z,14.74
2023-03-01T11:44:02.536Z,15.22
2023-03-01T11:46:33.182Z,15.25
2023-03-01T11:49:12.646Z,15.25
2023-03-01T11:51:42.920Z,14.12
2023-03-01T11:54:33.339Z,14.97
2023-03-01T11:57:13.326Z,14.50
2023-03-01T11:59:55.955Z,15.43
2023-03-01T12:02:35.628Z,15.87
2023-03-01T12:05:19.114Z,15.51
2023-03-01T12:07:59.054Z,15.93
2023-03-01T12:10:27.931Z,15.40
2023-03-01T12:13:00.010Z,15.05
2023-03-01T12:15:46.500Z,14.82
2023-03-01T12:18:26.918Z,15.15
2023-03-01T12:21:13.858Z,15.88
2023-03-01T12:23:40.978Z,15.52
2023-03-01T12:26:13.242Z,15.69
2023-03-01T12:28:55.602Z,15.65
2023-03-01T12:31:42.056Z,15.69
2023-03-01T12:34:15.154Z,16.17
2023-03-01T12:36:49.204Z,15.31
2023-03-01T12:39:35.093Z,15.68
2023-03-01T12:42:06.372Z,16.69
2023-03-01T12:44:48.657Z,15.91
2023-03-01T12:47:16.053Z,16.20
2023-03-01T12:49:45.839Z,15.48
2023-03-01T12:52:22.078Z,15.16
2023-03-01T12:54:49.802Z,15.76
2023-03-01T12:57:23.263Z,15.94
2023-03-01T13:00:09.372Z,15.82
2023-03-01T13:02:42.142Z,16.21
2023-03-01T13:05:30.509Z,15.70
2023-03-01T13:08:10.546Z,15.65
2023-03-01T13:10:48.242Z,15.32
2023-03-01T13:13:26.012Z,15.94
2023-03-01T13:15:53.672Z,15.78
2023-03-01T13:18:20.798Z,15.60
2023-03-01T13:20:48.660Z,15.26
2023-03-01T13:23:22.755Z,16.01
2023-03-01T13:26:02.081Z,15.60
2023-03-01T13:28:35.473Z,15.32
2023-03-01T13:31:03.614Z,14.61
2023-03-01T13:33:31.183Z,15.68
2023-03-01T13:35:59.411Z,15.56
2023-03-01T13:38:41.270Z,16.36
2023-03-01T13:41:09.094Z,16.51
2023-03-01T13:43:36.961Z,16.60
2023-03-01T13:46:09.677Z,16.37
2023-03-01T13:48:37.448Z,16.64
2023-03-01T13:51:09.184Z,15.85
2023-03-01T13:53:40.297Z,16.32
2023-03-01T13:56:12.176Z,16.36
2023-03-01T13:58:47.775Z,15.80
2023-03-01T14:01:22.620Z,15.61
2023-03-01T14:03:53.626Z,16.08
2023-03-01T14:06:22.126Z,16.03
2023-03-01T14:08:51.184Z,16.09
2023-03-01T14:11:18.364Z,16.14
2023-03-01T14:13:54.614Z,16.88
2023-03-01T14:16:46.698Z,16.54
2023-03-01T14:19:27.725Z,16.76
2023-03-01T14:22:05.280Z,16.85
2023-03-01T14:24:33.912Z,16.25
2023-03-01T14:27:02.090Z,16.61
2023-03-01T14:29:38.713Z,15.82
2023-03-01T14:32:18.076Z,16.35
2023-03-01T14:34:46.560Z,16.84
2023-03-01T14:37:21.766Z,16.86
2023-03-01T14:39:49.404Z,17.10
2023-03-01T14:42:17.199Z,16.27
2023-03-01T14:44:44.871Z,16.44
2023-03-01T14:47:13.277Z,16.72
2023-03-01T14:49:40.680Z,16.42
2023-03-01T14:52:15.412Z,16.15
2023-03-01T14:54:46.299Z,16.35
2023-03-01T14:57:16.772Z,16.88
2023-03-01T14:59:44.869Z,16.78
2023-03-01T15:02:18.196Z,17.00
2023-03-01T15:04:49.835Z,17.26
2023-03-01T15:07:17.021Z,16.72
2023-03-01T15:09:44.271Z,16.89
2023-03-01T15:12:30.109Z,16.95
2023-03-01T15:15:03.950Z,17.02
2023-03-01T15:17:33.710Z,17.22
2023-03-01T15:20:01.615Z,17.23
2023-03-01T15:22:28.897Z,17.13
2023-03-01T15:24:56.466Z,16.97
2023-03-01T15:27:24.556Z,17.63
2023-03-01T15:29:51.785Z,17.75
2023-03-01T15:32:27.000Z,17.57
2023-03-01T15:34:54.194Z,17.86
2023-03-01T15:37:40.144Z,17.86
2023-03-01T15:40:32.672Z,17.92
2023-03-01T15:43:00.956Z,17.36
2023-03-01T15:45:29.006Z,16.88
2023-03-01T15:48:01.637Z,17.70
2023-03-01T15:50:41.078Z,17.86
2023-03-01T15:53:12.129Z,17.82
2023-03-01T15:55:39.634Z,17.50
2023-03-01T15:58:19.186Z,17.65
2023-03-01T16:00:59.923Z,17.69
2023-03-01T16:03:28.273Z,17.54
2023-03-01T16:05:56.036Z,17.67
2023-03-01T16:08:23.288Z,17.51
2023-03-01T16:10:52.273Z,17.32
2023-03-01T16:13:20.311Z,17.48
2023-03-01T16:15:47.569Z,17.34
2023-03-01T16:18:15.510Z,17.23
2023-03-01T16:20:43.040Z,17.42
2023-03-01T16:23:11.982Z,17.29
2023-03-01T16:25:39.962Z,17.23
2023-03-01T16:28:10.569Z,17.35
2023-03-01T16:30:41.212Z,17.27
2023-03-01T16:33:24.294Z,17.27
2023-03-01T16:35:53.172Z,17.20
2023-03-01T16:38:21.059Z,17.27
2023-03-01T16:40:49.299Z,17.13
2023-03-01T16:43:19.247Z,17.02
2023-03-01T16:45:47.809Z,17.13
2023-03-01T16:48:15.168Z,17.05
2023-03-01T16:50:42.848Z,17.10
2023-03-01T16:53:11.091Z,16.79
2023-03-01T16:55:39.151Z,16.76
2023-03-01T16:58:07.012Z,16.85
2023-03-01T17:00:34.574Z,16.90
2023-03-01T17:03:02.320Z,16.79
2023-03-01T17:05:29.828Z,16.41
2023-03-01T17:07:58.085Z,16.14
2023-03-01T17:10:25.944Z,16.43
2023-03-01T17:12:55.594Z,16.37
2023-03-01T17:15:23.502Z,16.39
2023-03-01T17:17:52.168Z,16.32
2023-03-01T17:20:19.854Z,16.40
2023-03-01T17:22:47.990Z,16.22
2023-03-01T17:25:16.006Z,16.03
2023-03-01T17:27:43.680Z,16.21
2023-03-01T17:30:13.782Z,16.10
2023-03-01T17:32:44.671Z,16.00
2023-03-01T17:35:12.687Z,16.09
2023-03-01T17:37:46.801Z,16.17
2023-03-01T17:40:15.961Z,16.25
2023-03-01T17:42:43.798Z,16.22
2023-03-01T17:45:11.165Z,16.18
2023-03-01T17:47:41.901Z,16.12
2023-03-01T17:50:09.776Z,16.00
2023-03-01T17:52:37.181Z,15.92
2023-03-01T17:55:05.660Z,15.89
2023-03-01T17:57:33.792Z,15.86
2023-03-01T18:00:01.264Z,15.78
2023-03-01T18:02:38.736Z,15.84
2023-03-01T18:05:06.996Z,15.78
2023-03-01T18:07:34.582Z,15.70
2023-03-01T18:10:02.586Z,15.64
2023-03-01T18:12:32.625Z,15.57
2023-03-01T18:15:00.906Z,15.67
2023-03-01T18:17:32.836Z,15.49
2023-03-01T18:20:00.885Z,15.38
2023-03-01T18:22:29.079Z,15.18
2023-03-01T18:24:57.461Z,15.31
2023-03-01T18:27:25.631Z,15.23
2023-03-01T18:29:55.410Z,15.04
2023-03-01T18:32:23.841Z,15.23
2023-03-01T18:34:52.601Z,15.34
2023-03-01T18:37:21.845Z,15.14
2023-03-01T18:39:53.431Z,15.09
2023-03-01T18:42:22.626Z,15.05
2023-03-01T18:44:50.722Z,15.01
2023-03-01T18:47:19.099Z,15.09
2023-03-01T18:49:48.951Z,15.13
2023-03-01T18:52:17.618Z,14.93
2023-03-01T18:54:45.417Z,14.99
2023-03-01T18:57:14.026Z,14.89
2023-03-01T18:59:41.904Z,14.84
2023-03-01T19:02:11.750Z,14.74
2023-03-01T19:04:43.243Z,14.48
2023-03-01T19:07:13.082Z,14.40
2023-03-01T19:09:42.219Z,14.24
2023-03-01T19:12:10.643Z,14.09
2023-03-01T19:14:39.198Z,13.91
2023-03-01T19:17:07.623Z,14.01
2023-03-01T19:19:36.686Z,14.09
2023-03-01T19:22:06.404Z,13.99
2023-03-01T19:24:35.785Z,13.93
2023-03-01T19:27:05.078Z,14.09
2023-03-01T19:29:33.541Z,14.09
2023-03-01T19:32:02.468Z,14.04
2023-03-01T19:34:30.942Z,14.05
2023-03-01T19:37:00.138Z,14.01
2023-03-01T19:39:29.517Z,13.97
2023-03-01T19:41:57.659Z,14.07
2023-03-01T19:44:27.167Z,14.04
2023-03-01T19:46:59.653Z,14.04
2023-03-01T19:49:35.394Z,13.93
2023-03-01T19:52:04.109Z,13.82
2023-03-01T19:54:32.649Z,13.85
2023-03-01T19:57:02.085Z,13.95
2023-03-01T19:59:30.985Z,14.02
2023-03-01T20:01:58.999Z,13.77
2023-03-01T20:04:27.457Z,13.95
2023-03-01T20:06:55.740Z,13.98
2023-03-01T20:09:23.827Z,13.96
2023-03-01T20:11:57.369Z,13.70
2023-03-01T20:14:25.990Z,13.91
2023-03-01T20:16:54.898Z,14.00
2023-03-01T20:19:23.492Z,13.93
2023-03-01T20:21:51.440Z,13.99
2023-03-01T20:24:20.343Z,14.08
2023-03-01T20:26:48.668Z,14.19
2023-03-01T20:29:16.771Z,14.08
2023-03-01T20:31:45.510Z,14.13
2023-03-01T20:34:13.533Z,14.06
2023-03-01T20:36:43.318Z,13.98
2023-03-01T20:39:12.403Z,13.89
2023-03-01T20:41:40.740Z,13.93
2023-03-01T20:44:09.769Z,13.91
2023-03-01T20:46:38.218Z,13.87
2023-03-01T20:49:11.078Z,14.00
2023-03-01T20:51:39.457Z,14.00
2023-03-01T20:54:07.443Z,13.99
2023-03-01T20:56:35.732Z,13.98
2023-03-01T20:59:10.749Z,14.02
2023-03-01T21:01:40.131Z,13.72
2023-03-01T21:04:09.493Z,13.75
2023-03-01T21:06:38.547Z,13.89
2023-03-01T21:09:06.304Z,13.83
2023-03-01T21:11:33.983Z,13.61
2023-03-01T21:14:02.179Z,13.67
2023-03-01T21:16:29.746Z,13.57
2023-03-01T21:19:01.778Z,13.66
2023-03-01T21:21:30.067Z,13.53
2023-03-01T21:23:58.075Z,13.31
2023-03-01T21:26:26.618Z,13.22
2023-03-01T21:29:03.057Z,13.00
2023-03-01T21:31:33.828Z,13.11
2023-03-01T21:34:04.230Z,13.03
2023-03-01T21:36:33.116Z,12.68
2023-03-01T21:39:02.141Z,12.85
2023-03-01T21:41:31.617Z,13.05
2023-03-01T21:44:03.093Z,12.88
2023-03-01T21:46:31.843Z,12.49
2023-03-01T21:48:59.534Z,12.49
2023-03-01T21:51:27.375Z,12.29
2023-03-01T21:53:55.094Z,12.19
2023-03-01T21:56:26.442Z,12.23
2023-03-01T21:58:53.925Z,12.27
2023-03-01T22:01:25.823Z,12.16
2023-03-01T22:03:53.696Z,12.27
2023-03-01T22:06:22.970Z,12.59
2023-03-01T22:08:51.549Z,12.64
2023-03-01T22:11:20.920Z,12.55
2023-03-01T22:13:49.552Z,12.60
2023-03-01T22:16:16.842Z,12.65
2023-03-01T22:18:44.374Z,12.45
2023-03-01T22:21:11.708Z,12.52
2023-03-01T22:23:39.438Z,12.69
2023-03-01T22:26:07.253Z,12.65
2023-03-01T22:28:34.470Z,12.59
2023-03-01T22:31:05.205Z,12.65
2023-03-01T22:33:32.637Z,12.74
2023-03-01T22:35:59.847Z,12.75
2023-03-01T22:38:26.983Z,12.74
2023-03-01T22:40:58.352Z,12.78
2023-03-01T22:43:25.654Z,12.61
2023-03-01T22:45:52.915Z,12.66
2023-03-01T22:48:20.570Z,12.65
2023-03-01T22:50:47.839Z,12.66
2023-03-01T22:53:15.351Z,12.43
2023-03-01T22:55:42.788Z,12.51
2023-03-01T22:58:11.945Z,12.62
2023-03-01T23:00:39.105Z,12.65
2023-03-01T23:03:06.609Z,12.60
2023-03-01T23:05:33.969Z,12.57
2023-03-01T23:08:01.137Z,12.49
2023-03-01T23:10:28.846Z,12.14
2023-03-01T23:12:56.247Z,12.14
2023-03-01T23:15:23.625Z,11.54
2023-03-01T23:17:54.099Z,12.07
2023-03-01T23:20:21.476Z,12.12
2023-03-01T23:22:48.627Z,12.08
2023-03-01T23:25:16.292Z,12.18
2023-03-01T23:27:43.440Z,12.04
2023-03-01T23:30:10.868Z,12.25
2023-03-01T23:32:41.423Z,12.34
2023-03-01T23:35:09.359Z,11.96
2023-03-01T23:37:37.010Z,11.81
2023-03-01T23:40:06.331Z,11.61
2023-03-01T23:42:34.319Z,11.88
2023-03-01T23:45:01.537Z,12.09
2023-03-01T23:47:28.974Z,12.04
2023-03-01T23:49:57.420Z,12.03
2023-03-01T23:52:24.575Z,12.22
2023-03-01T23:54:52.016Z,11.98
2023-03-01T23:57:19.410Z,12.07
2023-03-01T23:59:46.565Z,11.87
